Time;durP1;ratioP1;P1;durP2;ratioP2;P2;SDS_P1;SDS_P2;PMS_P1;PMS_P2;Temp;Humidity;BMP_temperature;BMP_pressure;BME280_temperature;BME280_humidity;BME280_pressure;Samples;Min_cycle;Max_cycle;Signal;HPM_P1;HPM_P2
2022/01/25 00:24:20;;;;;;;20.30;10.13;;;;;;;-2.39;95.58;100076.38;5074036;28;20011;-67
2022/01/25 00:27:00;;;;;;;23.08;9.45;;;;;;;-2.43;95.68;100074.44;5078124;28;20212;-67
2022/01/25 00:32:13;;;;;;;29.30;12.20;;;;;;;-2.72;95.57;100071.97;5074097;28;20017;-67
2022/01/25 00:34:39;;;;;;;19.52;10.80;;;;;;;-2.72;96.75;100075.41;5072310;28;20332;-67
2022/01/25 00:37:05;;;;;;;22.88;11.23;;;;;;;-2.81;97.48;100071.44;5073730;28;20047;-67
2022/01/25 00:39:31;;;;;;;14.90;9.52;;;;;;;-2.68;97.97;100079.06;5071862;28;20031;-67
2022/01/25 00:41:56;;;;;;;23.58;11.18;;;;;;;-2.63;98.47;100075.00;5075068;28;20025;-67
2022/01/25 00:44:22;;;;;;;29.88;10.23;;;;;;;-2.62;98.21;100076.81;5075423;28;20084;-67
2022/01/25 00:46:48;;;;;;;20.65;11.35;;;;;;;-2.51;97.87;100070.53;5076511;28;20028;-67
2022/01/25 00:49:25;;;;;;;23.63;12.45;;;;;;;-2.48;96.99;100070.72;5074755;28;20043;-67
2022/01/25 00:56:48;;;;;;;20.17;8.88;;;;;;;-2.56;96.28;100078.03;5075509;28;20043;-67
2022/01/25 00:59:16;;;;;;;20.42;10.10;;;;;;;-2.53;96.04;100072.16;5076433;28;20021;-67
2022/01/25 01:01:42;;;;;;;18.15;7.68;;;;;;;-2.65;95.52;100068.91;5075080;28;20041;-67
2022/01/25 01:04:09;;;;;;;14.00;8.23;;;;;;;-2.74;95.45;100060.66;5078393;28;20021;-67
2022/01/25 01:06:36;;;;;;;22.10;8.90;;;;;;;-2.88;96.34;100061.63;5073997;28;20444;-67
2022/01/25 01:09:03;;;;;;;35.40;11.88;;;;;;;-2.80;96.71;100061.22;5072697;28;20320;-67
2022/01/25 01:11:38;;;;;;;20.13;9.85;;;;;;;-2.76;96.86;100051.97;5074626;28;20024;-67
2022/01/25 01:30:34;;;;;;;17.85;9.45;;;;;;;-2.64;95.07;100065.53;5074653;28;20027;-67
2022/01/25 01:43:44;;;;;;;21.17;9.15;;;;;;;-2.84;95.73;100072.19;5071856;28;20332;-67
2022/01/25 01:49:02;;;;;;;15.60;9.07;;;;;;;-2.90;95.46;100078.66;5075679;28;20246;-67
2022/01/25 01:51:31;;;;;;;20.90;8.98;;;;;;;-2.81;95.24;100094.63;5074683;28;20048;-67
2022/01/25 01:54:00;;;;;;;16.85;8.52;;;;;;;-2.79;94.83;100098.16;5071652;28;20048;-67
2022/01/25 01:56:26;;;;;;;22.45;9.77;;;;;;;-3.07;94.28;100090.59;5074102;28;20021;-67
2022/01/25 01:58:54;;;;;;;18.70;9.77;;;;;;;-3.17;94.75;100097.69;5074450;28;20081;-67
2022/01/25 02:01:21;;;;;;;27.92;10.63;;;;;;;-2.99;95.51;100098.75;5073397;28;20320;-67
2022/01/25 02:03:47;;;;;;;14.18;8.10;;;;;;;-3.02;95.46;100093.41;5070815;28;20332;-67
2022/01/25 02:06:13;;;;;;;21.52;10.23;;;;;;;-3.07;95.72;100090.59;5074235;28;20088;-67
2022/01/25 02:08:38;;;;;;;16.95;8.55;;;;;;;-3.05;96.57;100098.41;5072203;28;20020;-67
2022/01/25 02:11:05;;;;;;;21.05;9.30;;;;;;;-3.03;96.53;100096.81;5071878;28;20083;-67
2022/01/25 02:13:31;;;;;;;18.65;10.93;;;;;;;-3.01;95.93;100095.22;5071602;28;20069;-67
2022/01/25 02:16:00;;;;;;;21.80;10.00;;;;;;;-2.99;95.17;100093.59;5071520;28;20382;-67
2022/01/25 02:23:54;;;;;;;22.60;7.63;;;;;;;-3.00;94.82;100099.56;5073685;28;20016;-67
2022/01/25 02:26:19;;;;;;;19.50;10.70;;;;;;;-3.04;95.04;100095.91;5072110;28;20021;-67
2022/01/25 02:28:45;;;;;;;23.48;12.07;;;;;;;-3.20;94.25;100097.53;5076020;28;20044;-67
2022/01/25 02:31:14;;;;;;;22.35;10.55;;;;;;;-3.33;94.95;100080.47;5072941;28;20012;-67
2022/01/25 02:33:41;;;;;;;14.93;9.05;;;;;;;-3.21;95.88;100085.44;5072853;28;20029;-67
2022/01/25 02:36:11;;;;;;;22.38;9.45;;;;;;;-3.26;95.95;100086.88;5071664;28;20020;-67
2022/01/25 02:38:37;;;;;;;23.77;9.82;;;;;;;-3.24;96.73;100090.41;5071608;28;20020;-67
2022/01/25 02:41:04;;;;;;;13.65;7.47;;;;;;;-3.14;96.84;100097.88;5071490;28;20201;-67
2022/01/25 02:43:30;;;;;;;21.00;7.80;;;;;;;-3.18;95.99;100091.66;5071973;28;20045;-67
2022/01/25 02:49:01;;;;;;;21.65;9.85;;;;;;;-3.19;95.66;100089.91;5072776;28;20013;-67
2022/01/25 02:51:29;;;;;;;11.50;6.80;;;;;;;-3.15;96.02;100096.09;5072469;28;20044;-67
2022/01/25 02:53:56;;;;;;;23.77;8.60;;;;;;;-3.17;95.65;100089.97;5073056;28;20344;-67
2022/01/25 02:56:22;;;;;;;20.05;10.40;;;;;;;-3.17;95.31;100092.53;5075703;28;20050;-67
2022/01/25 02:58:48;;;;;;;17.73;9.02;;;;;;;-3.13;95.44;100094.50;5070522;28;20272;-67
2022/01/25 03:01:14;;;;;;;47.10;9.20;;;;;;;-3.10;95.09;100092.13;5074349;28;20025;-67
2022/01/25 03:03:40;;;;;;;17.63;8.55;;;;;;;-3.28;94.21;100075.59;5071553;28;20350;-67
2022/01/25 03:06:06;;;;;;;20.63;9.32;;;;;;;-3.25;95.22;100078.34;5070632;28;20067;-67
2022/01/25 03:08:32;;;;;;;19.20;8.50;;;;;;;-3.28;95.33;100078.19;5076117;28;20023;-67
2022/01/25 03:10:57;;;;;;;21.88;9.50;;;;;;;-3.27;95.37;100079.94;5072958;28;20313;-67
2022/01/25 03:13:29;;;;;;;20.00;7.85;;;;;;;-3.29;95.48;100073.84;5075890;28;20055;-67
2022/01/25 03:16:00;;;;;;;16.80;7.00;;;;;;;-3.28;95.57;100073.03;5072643;28;20033;-67
2022/01/25 03:21:04;;;;;;;15.15;8.73;;;;;;;-3.19;95.74;100076.13;5073040;28;20020;-67
2022/01/25 03:23:32;;;;;;;15.18;8.50;;;;;;;-3.18;95.67;100077.91;5076619;28;20035;-67
2022/01/25 03:25:58;;;;;;;19.38;9.90;;;;;;;-3.17;95.09;100079.66;5073090;28;20009;-67
2022/01/25 03:28:24;;;;;;;14.70;7.25;;;;;;;-3.17;94.71;100074.50;5075250;28;20019;-67
2022/01/25 03:30:50;;;;;;;20.27;8.75;;;;;;;-3.32;94.36;100068.50;5077016;28;20019;-67
2022/01/25 03:33:17;;;;;;;31.63;10.63;;;;;;;-3.59;93.96;100074.63;5075789;28;20046;-67
2022/01/25 03:35:43;;;;;;;21.27;8.80;;;;;;;-3.62;95.51;100067.63;5072034;28;20027;-67
2022/01/25 03:38:10;;;;;;;15.02;8.00;;;;;;;-3.50;95.36;100070.00;5075245;28;20021;-67
2022/01/25 03:40:35;;;;;;;19.35;9.60;;;;;;;-3.49;95.62;100067.53;5076379;28;20024;-67
2022/01/25 03:43:03;;;;;;;15.32;7.53;;;;;;;-3.45;95.08;100069.47;5076106;28;20022;-67
2022/01/25 03:45:32;;;;;;;19.02;9.07;;;;;;;-3.36;94.79;100074.28;5074024;28;20013;-67
2022/01/25 03:49:49;;;;;;;15.07;8.50;;;;;;;-3.37;94.15;100073.41;5076523;28;20036;-67
2022/01/25 03:50:46;;;;;;;12.50;6.95;;;;;;;-3.48;94.49;100078.72;5078130;28;20032;-67
2022/01/25 03:53:13;;;;;;;16.65;9.48;;;;;;;-3.44;94.79;100075.53;5076832;28;20025;-67
2022/01/25 03:55:39;;;;;;;18.27;9.05;;;;;;;-3.42;95.51;100071.38;5075577;28;20035;-67
2022/01/25 03:58:06;;;;;;;33.05;9.23;;;;;;;-3.31;94.86;100083.16;5076295;28;20080;-67
2022/01/25 04:00:33;;;;;;;12.60;6.50;;;;;;;-3.32;94.31;100081.38;5076261;28;20025;-67
2022/01/25 04:03:06;;;;;;;16.83;8.30;;;;;;;-3.35;94.14;100086.34;5073019;28;20028;-67
2022/01/25 04:05:36;;;;;;;17.67;10.30;;;;;;;-3.36;93.74;100080.31;5076089;28;20016;-67
2022/01/25 04:08:04;;;;;;;23.00;9.05;;;;;;;-3.48;93.83;100089.03;5074329;28;20096;-67
2022/01/25 04:10:29;;;;;;;37.08;9.82;;;;;;;-3.46;93.55;100088.31;5074927;28;20356;-67
2022/01/25 04:12:55;;;;;;;16.33;8.50;;;;;;;-3.62;93.63;100079.59;5073888;28;20036;-67
2022/01/25 04:15:20;;;;;;;15.90;9.85;;;;;;;-3.61;94.98;100071.09;5072547;28;20020;-67
2022/01/25 04:17:51;;;;;;;26.85;9.82;;;;;;;-3.50;95.56;100067.44;5071574;28;20062;-67
2022/01/25 04:20:25;;;;;;;21.65;9.13;;;;;;;-3.58;94.54;100072.13;5072605;28;20016;-67
2022/01/25 04:25:35;;;;;;;12.35;6.80;;;;;;;-3.70;94.83;100073.13;5076122;28;20016;-67
2022/01/25 04:28:01;;;;;;;19.67;9.02;;;;;;;-3.69;95.02;100062.94;5071173;28;20088;-67
2022/01/25 04:30:26;;;;;;;19.98;9.82;;;;;;;-3.71;95.07;100068.75;5075534;28;20051;-67
2022/01/25 04:54:55;;;;;;;12.70;6.85;;;;;;;-3.68;93.27;100050.91;5077276;28;20076;-67
2022/01/25 04:57:43;;;;;;;20.98;9.45;;;;;;;-3.75;93.71;100046.22;5069332;28;20320;-67
2022/01/25 04:59:57;;;;;;;17.50;9.57;;;;;;;-3.72;94.09;100043.84;5069953;28;20029;-67
2022/01/25 05:02:37;;;;;;;20.75;9.32;;;;;;;-3.92;94.68;100041.78;5075334;28;20074;-67
2022/01/25 05:05:10;;;;;;;14.20;7.70;;;;;;;-3.94;94.84;100043.38;5074634;28;20012;-67
2022/01/25 05:07:54;;;;;;;14.88;7.63;;;;;;;-3.95;95.24;100044.19;5074720;28;20080;-66
2022/01/25 05:10:19;;;;;;;18.58;8.02;;;;;;;-4.00;95.98;100048.13;5081404;28;20020;-67
2022/01/25 05:15:49;;;;;;;19.50;9.20;;;;;;;-3.79;95.59;100054.56;5085675;28;20032;-67
2022/01/25 05:23:23;;;;;;;14.93;6.38;;;;;;;-3.86;95.61;100068.72;5085250;28;20119;-67
2022/01/25 05:25:48;;;;;;;19.95;9.20;;;;;;;-4.00;95.17;100063.56;5085059;28;20024;-67
2022/01/25 05:28:14;;;;;;;16.73;7.22;;;;;;;-4.00;94.51;100068.72;5085106;28;20075;-67
2022/01/25 05:30:39;;;;;;;17.00;8.82;;;;;;;-3.97;96.28;100064.66;5085004;28;20028;-67
2022/01/25 05:33:05;;;;;;;12.43;7.03;;;;;;;-3.84;95.97;100064.59;5084976;28;20024;-67
2022/01/25 05:35:31;;;;;;;20.48;10.98;;;;;;;-3.84;95.01;100064.59;5084842;28;20028;-67
2022/01/25 05:37:56;;;;;;;15.45;8.55;;;;;;;-3.91;94.39;100061.56;5084893;28;20047;-67
2022/01/25 05:40:41;;;;;;;21.35;9.80;;;;;;;-4.00;95.07;100063.56;5084851;28;20038;-67
2022/01/25 05:48:10;;;;;;;;;;;;;;;-3.83;92.88;100068.06;5085467;28;20024;-67
2022/01/25 05:50:36;;;;;;;19.42;9.82;;;;;;;-3.86;92.40;100070.44;5084652;28;19904;-67
2022/01/25 05:53:02;;;;;;;12.90;6.60;;;;;;;-3.96;93.05;100070.69;5084597;28;20051;-67
2022/01/25 05:55:27;;;;;;;10.23;6.72;;;;;;;-4.01;92.82;100070.41;5084441;28;20024;-67
2022/01/25 05:57:53;;;;;;;15.10;8.00;;;;;;;-4.05;93.83;100065.00;5084551;28;20020;-67
2022/01/25 06:00:18;;;;;;;15.48;7.72;;;;;;;-3.97;93.90;100063.75;5084472;28;20028;-67
2022/01/25 06:02:45;;;;;;;19.98;8.90;;;;;;;-4.07;94.26;100062.34;5084433;28;20021;-67
2022/01/25 06:05:11;;;;;;;12.77;7.25;;;;;;;-3.98;94.60;100062.00;5083245;28;20298;-67
2022/01/25 06:07:36;;;;;;;13.85;7.85;;;;;;;-4.00;94.26;100069.63;5083633;28;20028;-67
2022/01/25 06:10:03;;;;;;;19.92;10.00;;;;;;;-3.96;94.69;100065.56;5082569;28;20320;-67
2022/01/25 06:12:29;;;;;;;17.27;7.65;;;;;;;-3.85;94.29;100070.53;5083131;28;20064;-67
2022/01/25 06:14:54;;;;;;;15.35;8.10;;;;;;;-3.87;93.97;100066.97;5083226;28;20036;-67
2022/01/25 06:17:20;;;;;;;12.13;6.47;;;;;;;-3.90;93.75;100073.63;5083594;28;20020;-67
2022/01/25 06:19:45;;;;;;;17.20;9.45;;;;;;;-3.92;93.73;100077.78;5083262;28;20024;-67
2022/01/25 06:22:11;;;;;;;17.88;9.30;;;;;;;-4.06;94.36;100083.75;5082841;28;20275;-67
2022/01/25 06:24:36;;;;;;;18.80;8.20;;;;;;;-4.05;94.51;100083.00;5083152;28;20027;-67
2022/01/25 06:27:02;;;;;;;16.05;8.07;;;;;;;-3.96;95.60;100070.69;5083154;28;20031;-67
2022/01/25 06:29:27;;;;;;;17.70;9.85;;;;;;;-3.98;94.98;100067.13;5083179;28;20370;-67
2022/01/25 06:31:53;;;;;;;17.80;8.68;;;;;;;-3.93;95.13;100076.03;5083359;28;20034;-67
2022/01/25 06:34:19;;;;;;;15.30;7.78;;;;;;;-4.10;93.78;100076.66;5082552;28;20322;-67
2022/01/25 06:36:46;;;;;;;25.33;9.45;;;;;;;-4.12;94.51;100078.28;5083063;28;20024;-67
2022/01/25 06:39:12;;;;;;;22.35;10.18;;;;;;;-4.22;94.16;100075.91;5083029;28;20228;-67
2022/01/25 06:41:38;;;;;;;50.13;17.15;;;;;;;-4.20;94.58;100079.47;5083208;28;20048;-67
2022/01/25 06:44:04;;;;;;;50.35;19.63;;;;;;;-4.13;94.99;100076.50;5065227;28;20025;-67
2022/01/25 06:46:30;;;;;;;46.42;18.25;;;;;;;-4.15;95.08;100083.25;5074545;28;20024;-67
2022/01/25 06:48:55;;;;;;;47.78;16.83;;;;;;;-4.09;95.06;100099.91;5084145;28;20020;-67
2022/01/25 06:51:21;;;;;;;29.45;12.57;;;;;;;-4.01;94.59;100093.56;5083904;28;20052;-67
2022/01/25 06:53:47;;;;;;;30.35;14.05;;;;;;;-3.97;94.72;100099.75;5083887;28;20031;-67
2022/01/25 06:56:12;;;;;;;25.55;13.80;;;;;;;-3.91;94.04;100102.69;5087209;28;20310;-67
2022/01/25 06:58:41;;;;;;;28.25;9.98;;;;;;;-3.96;93.65;100102.41;5087943;28;20024;-67
2022/01/25 07:01:06;;;;;;;37.03;11.45;;;;;;;-3.96;93.67;100105.00;5087892;28;20028;-67
2022/01/25 07:03:32;;;;;;;25.15;11.82;;;;;;;-4.31;94.04;100106.22;5087894;28;20134;-67
2022/01/25 07:05:57;;;;;;;32.75;14.05;;;;;;;-4.25;94.07;100117.75;5087834;28;20031;-67
2022/01/25 07:08:23;;;;;;;30.58;14.95;;;;;;;-4.01;94.33;100113.22;5087749;28;20028;-67
2022/01/25 07:10:48;;;;;;;27.00;12.65;;;;;;;-3.91;93.50;100111.31;5087780;28;20074;-67
2022/01/25 07:13:13;;;;;;;22.30;9.77;;;;;;;-3.86;93.34;100106.44;5087574;28;20055;-67
2022/01/25 07:15:39;;;;;;;19.58;9.02;;;;;;;-3.95;93.45;100108.47;5087558;28;20255;-67
2022/01/25 07:18:04;;;;;;;21.90;10.50;;;;;;;-3.96;93.92;100116.97;5087850;28;20031;-67
2022/01/25 07:20:30;;;;;;;17.90;10.50;;;;;;;-3.90;94.12;100118.22;5087550;28;20048;-67
2022/01/25 07:22:55;;;;;;;24.30;12.15;;;;;;;-3.85;94.49;100115.94;5087754;28;20035;-67
2022/01/25 07:25:21;;;;;;;29.33;11.73;;;;;;;-3.76;94.93;100117.38;5087406;28;20039;-67
2022/01/25 07:27:47;;;;;;;42.10;12.45;;;;;;;-3.67;94.54;100106.75;5087673;28;20328;-67
2022/01/25 07:30:13;;;;;;;24.05;10.73;;;;;;;-3.49;94.34;100107.81;5087364;28;20033;-67
2022/01/25 07:32:38;;;;;;;25.10;11.68;;;;;;;-3.45;93.43;100100.34;5087311;28;20024;-67
2022/01/25 07:35:04;;;;;;;24.77;10.77;;;;;;;-3.33;93.11;100089.88;5087184;28;20228;-67
2022/01/25 07:37:30;;;;;;;27.05;13.48;;;;;;;-3.35;92.98;100104.38;5087181;28;20028;-67
2022/01/25 07:39:56;;;;;;;49.03;20.33;;;;;;;-3.17;93.09;100095.13;5087146;28;20080;-67
2022/01/25 07:42:22;;;;;;;36.58;17.23;;;;;;;-2.99;92.98;100103.91;5087334;28;20020;-67
2022/01/25 07:44:48;;;;;;;31.30;14.85;;;;;;;-2.86;93.43;100096.06;5085930;28;20023;-67
2022/01/25 07:47:13;;;;;;;17.20;9.68;;;;;;;-2.75;93.42;100100.13;5087287;28;20059;-67
2022/01/25 07:49:39;;;;;;;25.50;11.35;;;;;;;-2.70;93.45;100098.69;5086990;28;20066;-67
2022/01/25 07:52:05;;;;;;;24.92;12.00;;;;;;;-2.65;93.87;100107.56;5086937;28;20024;-67
2022/01/25 07:54:31;;;;;;;19.00;9.57;;;;;;;-2.49;93.26;100099.88;5086837;28;20028;-67
2022/01/25 07:56:57;;;;;;;21.52;12.00;;;;;;;-2.50;93.12;100092.94;5086849;28;20027;-67
2022/01/25 07:59:22;;;;;;;29.60;10.52;;;;;;;-2.44;93.63;100101.00;5086809;28;20051;-67
2022/01/25 08:01:49;;;;;;;29.90;11.50;;;;;;;-2.46;94.25;100105.19;5086752;28;20025;-67
2022/01/25 08:04:16;;;;;;;31.65;12.13;;;;;;;-2.35;93.83;100104.06;5086828;28;20025;-67
2022/01/25 08:06:41;;;;;;;24.25;10.85;;;;;;;-2.28;93.91;100107.06;5086621;28;20159;-67
2022/01/25 08:09:08;;;;;;;25.60;12.85;;;;;;;-2.18;94.05;100098.16;5086645;28;20068;-67
2022/01/25 08:11:34;;;;;;;38.60;13.27;;;;;;;-2.06;94.37;100109.09;5086347;28;20028;-67
2022/01/25 08:14:20;;;;;;;28.50;11.80;;;;;;;-2.05;94.51;100116.06;5086484;28;20105;-67
2022/01/25 08:16:50;;;;;;;27.42;10.95;;;;;;;-1.93;94.55;100121.84;5086304;28;20063;-67
2022/01/25 08:19:17;;;;;;;35.50;13.55;;;;;;;-1.98;95.24;100117.25;5086502;28;20092;-67
2022/01/25 08:21:43;;;;;;;57.05;17.95;;;;;;;-2.27;96.42;100123.44;5086394;28;20044;-67
2022/01/25 08:24:10;;;;;;;47.80;18.42;;;;;;;-1.98;96.19;100122.41;5086274;28;20043;-67
2022/01/25 08:26:35;;;;;;;72.75;27.80;;;;;;;-2.19;94.90;100117.00;5086340;28;20080;-67
2022/01/25 08:29:02;;;;;;;42.95;16.70;;;;;;;-2.27;94.70;100123.44;5086293;28;20324;-67
2022/01/25 08:31:27;;;;;;;34.92;18.63;;;;;;;-2.17;95.13;100120.56;5086279;28;20027;-67
2022/01/25 08:33:53;;;;;;;49.63;18.27;;;;;;;-2.20;96.23;100115.22;5086195;28;20087;-67
2022/01/25 08:36:19;;;;;;;51.60;19.15;;;;;;;-2.14;96.97;100115.56;5086081;28;20261;-67
2022/01/25 08:38:45;;;;;;;60.13;19.20;;;;;;;-1.91;96.95;100120.25;5086079;28;20025;-67
2022/01/25 08:41:12;;;;;;;41.88;20.50;;;;;;;-1.81;97.31;100112.16;5086040;28;20078;-67
2022/01/25 08:43:37;;;;;;;59.78;20.95;;;;;;;-1.91;97.86;100115.06;5086238;28;20320;-67
2022/01/25 08:46:03;;;;;;;42.83;16.95;;;;;;;-1.86;98.88;100113.66;5085959;28;20020;-67
2022/01/25 08:48:29;;;;;;;41.10;15.52;;;;;;;-1.62;99.29;100114.03;5085879;28;20024;-67
2022/01/25 08:50:54;;;;;;;34.42;16.42;;;;;;;-1.59;99.75;100106.44;5085837;28;20035;-67
2022/01/25 08:53:20;;;;;;;38.38;14.18;;;;;;;-1.32;100.00;100116.47;5085845;28;20266;-67
2022/01/25 08:55:45;;;;;;;47.40;18.50;;;;;;;-1.34;99.57;100118.09;5085694;28;20021;-67
2022/01/25 08:58:11;;;;;;;47.78;17.10;;;;;;;-1.01;99.46;100109.41;5085683;28;20381;-67
2022/01/25 09:00:37;;;;;;;39.33;16.48;;;;;;;-0.93;99.53;100108.13;5085664;28;20069;-67
2022/01/25 09:03:02;;;;;;;37.88;13.82;;;;;;;-0.82;99.46;100114.69;5085632;28;20042;-67
2022/01/25 09:05:29;;;;;;;30.08;13.52;;;;;;;-0.79;99.79;100117.41;5085581;28;20040;-67
2022/01/25 09:07:57;;;;;;;28.20;11.57;;;;;;;-0.71;100.00;100110.94;5085606;28;20343;-67
2022/01/25 09:10:24;;;;;;;38.60;15.50;;;;;;;-0.51;100.00;100114.44;5085768;28;20024;-67
2022/01/25 09:12:49;;;;;;;42.60;16.05;;;;;;;-0.35;100.00;100110.06;5085299;28;20044;-67
2022/01/25 09:15:15;;;;;;;34.90;14.85;;;;;;;-0.25;100.00;100107.09;5085286;28;20024;-67
2022/01/25 09:17:40;;;;;;;34.38;13.57;;;;;;;-0.31;99.96;100105.94;5084781;28;20087;-67
2022/01/25 09:20:06;;;;;;;47.60;13.32;;;;;;;-0.17;99.72;100113.53;5085531;28;20025;-67
2022/01/25 09:22:32;;;;;;;31.70;12.63;;;;;;;-0.03;99.55;100107.25;5085497;28;20327;-67
2022/01/25 09:24:57;;;;;;;37.00;12.23;;;;;;;0.07;98.50;100107.69;5085142;28;20020;-67
2022/01/25 09:27:23;;;;;;;38.22;12.73;;;;;;;0.09;98.40;100111.25;5085185;28;20389;-67
2022/01/25 09:29:48;;;;;;;39.40;14.77;;;;;;;0.07;97.82;100107.69;5085107;28;20062;-67
2022/01/25 09:32:14;;;;;;;32.90;12.88;;;;;;;0.16;97.89;100113.28;5085320;28;20028;-67
2022/01/25 09:34:39;;;;;;;26.77;11.10;;;;;;;0.20;97.81;100122.94;5084922;28;20216;-67
2022/01/25 09:37:05;;;;;;;30.23;12.05;;;;;;;0.25;97.27;100118.88;5084933;28;20066;-67
2022/01/25 09:39:30;;;;;;;25.48;10.15;;;;;;;0.28;97.79;100122.47;5085135;28;20016;-67
2022/01/25 09:41:56;;;;;;;25.48;11.63;;;;;;;0.25;97.68;100131.81;5084888;28;20031;-67
2022/01/25 09:44:23;;;;;;;34.42;10.73;;;;;;;0.31;97.13;100134.69;5084789;28;20020;-67
2022/01/25 09:46:53;;;;;;;24.77;9.50;;;;;;;0.26;97.68;100120.63;5085005;28;20065;-67
2022/01/25 09:49:19;;;;;;;34.20;11.57;;;;;;;0.46;97.11;100119.78;5084983;28;20024;-67
2022/01/25 09:51:47;;;;;;;35.25;12.63;;;;;;;0.48;96.74;100121.66;5084690;28;20067;-67
2022/01/25 09:54:13;;;;;;;27.90;12.35;;;;;;;0.28;96.50;100134.53;5084514;28;20312;-67
2022/01/25 09:56:39;;;;;;;32.40;13.38;;;;;;;0.29;97.64;100136.31;5084810;28;20047;-67
2022/01/25 09:59:04;;;;;;;27.38;11.82;;;;;;;0.47;96.91;100131.94;5084614;28;20031;-67
2022/01/25 10:01:31;;;;;;;33.80;11.63;;;;;;;0.58;96.79;100121.22;5084429;28;20024;-67
2022/01/25 10:03:58;;;;;;;22.77;9.95;;;;;;;0.49;96.63;100131.19;5084429;28;20103;-67
2022/01/25 10:06:30;;;;;;;32.10;13.15;;;;;;;0.40;96.32;100135.06;5084373;28;20327;-67
2022/01/25 10:08:57;;;;;;;24.65;12.32;;;;;;;0.53;96.68;100140.00;5084393;28;20024;-67
2022/01/25 10:11:25;;;;;;;33.60;12.82;;;;;;;0.45;96.78;100143.94;5084192;28;20048;-67
2022/01/25 10:13:54;;;;;;;31.52;11.77;;;;;;;0.55;96.44;100136.66;5084228;28;20087;-67
2022/01/25 10:16:29;;;;;;;24.25;11.35;;;;;;;0.68;96.45;100132.88;5084171;28;20220;-67
2022/01/25 10:18:58;;;;;;;45.28;12.30;;;;;;;0.78;96.06;100125.56;5084287;28;20024;-67
2022/01/25 10:21:35;;;;;;;28.20;11.25;;;;;;;0.86;95.88;100136.25;5084180;28;20349;-67
2022/01/25 10:24:19;;;;;;;33.95;12.88;;;;;;;0.74;96.52;100133.13;5084113;28;20024;-67
2022/01/25 10:27:03;;;;;;;28.52;11.82;;;;;;;0.90;96.46;100135.56;5084215;28;20091;-67
2022/01/25 10:29:34;;;;;;;31.45;13.00;;;;;;;0.95;95.86;100139.25;5083247;28;20020;-67
2022/01/25 10:32:10;;;;;;;31.08;13.27;;;;;;;0.92;96.30;100137.38;5084146;28;20046;-67
2022/01/25 10:34:43;;;;;;;36.28;12.90;;;;;;;0.95;97.36;100134.91;5084009;28;20044;-67
2022/01/25 10:37:11;;;;;;;37.47;14.43;;;;;;;1.00;96.61;100132.53;5084282;28;20082;-67
2022/01/25 10:39:40;;;;;;;39.65;14.27;;;;;;;1.04;96.94;100129.25;5084223;28;20339;-67
2022/01/25 10:42:07;;;;;;;31.40;12.68;;;;;;;1.15;96.90;100127.97;5083977;28;20025;-67
2022/01/25 10:44:55;;;;;;;33.80;13.88;;;;;;;1.20;96.99;100123.88;5083929;28;20028;-67
2022/01/25 10:47:49;;;;;;;43.95;16.05;;;;;;;1.41;95.94;100122.13;5083951;28;20028;-67
2022/01/25 10:50:18;;;;;;;34.30;14.07;;;;;;;1.23;96.63;100117.09;5084178;28;20224;-67
2022/01/25 10:52:45;;;;;;;36.97;12.77;;;;;;;1.33;96.81;100114.03;5083844;28;20066;-67
2022/01/25 10:55:12;;;;;;;44.35;13.57;;;;;;;1.20;96.33;100110.91;5083760;28;20024;-67
2022/01/25 10:57:38;;;;;;;24.88;11.60;;;;;;;1.34;97.31;100114.94;5083858;28;20044;-67
2022/01/25 11:00:09;;;;;;;30.40;13.77;;;;;;;1.27;97.77;100123.31;5081186;28;20028;-67
2022/01/25 11:02:35;;;;;;;29.83;12.63;;;;;;;1.44;98.38;100125.75;5063715;28;20032;-67
2022/01/25 11:05:06;;;;;;;35.38;12.60;;;;;;;1.58;98.07;100126.31;5064720;28;20021;-67
2022/01/25 11:07:39;;;;;;;32.95;12.65;;;;;;;1.62;97.87;100128.19;5071617;28;20223;-67
2022/01/25 11:10:06;;;;;;;35.38;13.52;;;;;;;1.63;97.95;100122.16;5068177;28;20333;-67
2022/01/25 11:12:37;;;;;;;28.92;11.90;;;;;;;1.75;97.51;100125.25;5073964;28;20044;-67
2022/01/25 11:15:06;;;;;;;34.30;14.10;;;;;;;1.70;96.99;100126.75;5075986;28;20020;-67
2022/01/25 11:17:32;;;;;;;41.35;13.13;;;;;;;1.50;97.57;100118.22;5062245;28;20024;-67
2022/01/25 11:20:00;;;;;;;23.60;11.18;;;;;;;1.62;97.75;100115.22;5068088;28;20025;-67
2022/01/25 11:22:26;;;;;;;33.22;11.07;;;;;;;1.67;97.30;100116.25;5072826;28;20174;-67
2022/01/25 11:24:58;;;;;;;29.17;11.70;;;;;;;1.73;96.46;100106.13;5078213;28;20205;-67
2022/01/25 11:27:26;;;;;;;27.70;12.93;;;;;;;1.61;96.42;100109.13;5082643;28;20028;-67
2022/01/25 11:29:54;;;;;;;33.85;12.65;;;;;;;1.72;96.72;100104.38;5079693;28;20259;-67
2022/01/25 11:32:27;;;;;;;42.35;13.45;;;;;;;1.73;96.45;100103.53;5073222;28;20016;-67
2022/01/25 11:34:53;;;;;;;27.95;12.18;;;;;;;1.66;96.40;100101.53;5075640;28;20025;-67
2022/01/25 11:37:19;;;;;;;35.08;12.68;;;;;;;1.73;96.17;100103.53;5082496;28;20088;-67
2022/01/25 11:39:48;;;;;;;33.53;12.35;;;;;;;1.82;96.11;100096.09;5082467;28;20024;-67
2022/01/25 11:42:23;;;;;;;39.08;14.77;;;;;;;1.78;97.39;100112.38;5082428;28;20102;-67
2022/01/25 11:44:58;;;;;;;47.53;15.43;;;;;;;1.79;98.15;100106.38;5066501;28;20312;-67
2022/01/25 11:47:37;;;;;;;33.92;13.07;;;;;;;1.95;97.99;100106.13;5066152;28;20028;-67
2022/01/25 11:50:09;;;;;;;39.80;15.23;;;;;;;2.03;97.58;100102.13;5066072;28;20083;-67
2022/01/25 11:52:35;;;;;;;39.75;14.90;;;;;;;1.98;97.35;100101.94;5066058;28;20264;-67
2022/01/25 11:55:27;;;;;;;47.50;15.50;;;;;;;2.09;96.82;100097.16;5065861;28;20029;-67
2022/01/25 11:57:55;;;;;;;42.45;16.50;;;;;;;1.98;97.79;100103.63;5065921;28;20052;-67
2022/01/25 12:00:35;;;;;;;32.83;13.43;;;;;;;2.18;97.33;100092.25;5068558;28;20020;-67
2022/01/25 12:03:01;;;;;;;40.45;14.05;;;;;;;2.27;97.10;100092.59;5071773;28;20048;-67
2022/01/25 12:05:27;;;;;;;39.55;16.83;;;;;;;2.33;96.46;100082.44;5082942;28;20085;-67
2022/01/25 12:08:10;;;;;;;34.72;13.38;;;;;;;2.36;96.33;100086.84;5085743;28;20371;-67
2022/01/25 12:10:43;;;;;;;45.08;15.63;;;;;;;2.21;96.42;100082.00;5085347;28;20021;-67
2022/01/25 12:13:16;;;;;;;;;;;;;;;2.33;96.63;100086.75;5085959;28;20041;-67
2022/01/25 12:15:42;;;;;;;41.95;16.38;;;;;;;2.40;96.25;100081.81;5085544;28;19931;-67
2022/01/25 12:18:49;;;;;;;40.70;15.13;;;;;;;2.29;96.64;100080.56;5085840;28;20025;-67
2022/01/25 12:21:14;;;;;;;37.47;14.07;;;;;;;2.20;96.79;100075.94;5085505;28;20087;-67
2022/01/25 12:23:45;;;;;;;44.55;17.00;;;;;;;2.35;96.90;100075.59;5086319;28;20066;-67
2022/01/25 12:26:17;;;;;;;43.60;16.60;;;;;;;2.44;96.42;100065.53;5086647;28;20243;-68
2022/01/25 12:28:46;;;;;;;;;;;;;;;2.49;96.39;100060.47;5086992;28;20023;-68
2022/01/25 12:31:16;;;;;;;32.33;15.23;;;;;;;2.50;96.14;100059.66;5086246;28;19940;-68
2022/01/25 12:33:43;;;;;;;37.90;14.98;;;;;;;2.50;96.12;100059.66;5086173;28;20069;-68
2022/01/25 12:36:09;;;;;;;40.75;13.93;;;;;;;2.54;96.22;100059.81;5086342;28;20024;-68
2022/01/25 12:38:37;;;;;;;40.25;15.13;;;;;;;2.51;95.50;100062.31;5086085;28;20058;-68
2022/01/25 12:41:21;;;;;;;48.00;18.60;;;;;;;2.34;96.09;100058.22;5086090;28;20240;-68
2022/01/25 12:43:53;;;;;;;49.10;17.23;;;;;;;2.17;97.11;100043.75;5086076;28;20028;-67
2022/01/25 12:46:25;;;;;;;44.33;16.27;;;;;;;2.25;97.34;100047.53;5086258;28;20361;-67
2022/01/25 12:48:53;;;;;;;35.00;13.63;;;;;;;2.43;97.05;100042.97;5086262;28;20204;-67
2022/01/25 12:51:27;;;;;;;40.95;16.45;;;;;;;2.46;97.03;100043.06;5085913;28;20335;-67
2022/01/25 12:53:55;;;;;;;38.75;16.92;;;;;;;2.50;96.93;100039.72;5084845;28;20028;-67
2022/01/25 12:56:34;;;;;;;40.58;17.10;;;;;;;2.54;96.50;100032.94;5085960;28;20039;-67
2022/01/25 12:59:23;;;;;;;52.38;18.92;;;;;;;2.34;97.48;100042.63;5085716;28;20045;-67
2022/01/25 13:01:51;;;;;;;49.47;15.65;;;;;;;2.26;97.61;100036.28;5085767;28;20349;-67
2022/01/25 13:04:17;;;;;;;43.33;15.43;;;;;;;2.39;98.05;100046.28;5085621;28;20027;-67
2022/01/25 13:06:50;;;;;;;46.20;17.73;;;;;;;2.33;97.79;100039.97;5085558;28;20028;-67
2022/01/25 13:09:25;;;;;;;46.85;17.67;;;;;;;2.34;97.84;100041.78;5085547;28;20027;-67